Wednesday, May 04, 2016
06:05 UTC
  |  Log In   |  Register Free
Airport Search:

La Porte Municipal Airport
(T41)

La Porte Municipal Airport Diagram
No Airport Diagram Available

FAA data valid effective Mar 31 2016 - May 26 2016 (unless otherwise noted).

 
 
 
 
 
 
 
 
 
 
 
 
 
 
Current Aviation Weather for T41

Weather Summary


Current weather conditions are not available for T41 - The nearest NOAA weather station is at EFD, (6.2 nm SW from T41)

The most recent METAR observation for T41 was updated at: 12:50 UTC
METAR for T41 is not available. Closest METAR is for KHOU 11.3 nm NE
KHOU  (11.3 nm NE)   (most recent observation was updated at 40:55 UTC)
040553Z 34006KT 10SM CLR 18/11 A3005 RMK AO2 SLP182 T01780106 10244 20178 402560156 51013

KLVJ  (12.9 nm NE)   (most recent observation was updated at 40:55 UTC)
040553Z AUTO 35003KT 10SM CLR 17/13 A3007 RMK AO2 SLP181 T01720128 10256 20172 402670167 51013

TAF for T41 is not available.
KEFD
040400Z 0404/0510 35006KT 9999 FEW080 QNH2998INS BECMG 0416/0417 34010G15KT 9999 SKC QNH2996INS BECMG 0422/0423 35006KT 9999 SKC QNH2998INS TX27/0421Z TN13/0412Z

KHOU  (11.3 nm NE)   (most recent observation was updatred at 40:52 UTC)
040520Z 0406/0506 35008KT P6SM SKC FM041700 33011KT P6SM SKC


KIAH  (23.8 nm SE)   (most recent observation was updatred at 40:52 UTC)
040520Z 0406/0512 34007KT P6SM SCT100
GlobalAir.com is loading additional information.
 Current Weather at EFD
68.0 F° (20.0 C°)

North winds at 3.5 mph
Pressure:
30.06 in
Humidity:
53%
Wind:
North at 3.5 mph
Dew Point:
50.0 F° (10.0 C°)
Visibility:
10.00 mi
T41 NOAA Radar




Find All Airport Services Find A Hotel Find A Rental Car Find A Golf Course Find A Restaurant $100 Hamburger



Airport Weather Forecast for T41

Translated METAR for KEFD (0550 UTC)
METAR:
KEFD 040550Z 35003KT 10SM CLR 19/10 A3007
Conditions at:
KEFD (Ellington, TX) observed 0550 UTC 04 May 2016
Temperature:
19°C (66.2°F)
Dewpoint:
10°C (50°F) [RH = 55.9]
Pressure:
30.07 inches Hg (1018.3 mb)
Winds:
from the N (350 degrees) at 3.5 mph (3 knots: 1.5 m/s)
Visibility:
10 mile(s)
Ceiling:
at least 12,000 feet AGL
Clouds:
Clear below 12,000 feet AGL
Remarks:

Translated TAF for KEFD (Ellington, TX) (0400 UTC)
TAF text:
KEFD 040400Z 0404/0510 35006KT 9999 FEW080 QNH2998INS BECMG 0416/0417 34010G15KT 9999 SKC QNH2996INS BECMG 0422/0423 35006KT 9999 SKC QNH2998INS TX27/0421Z TN13/0412Z
Forecast period:
Wednesday May 04 2016 04:00 UTC - Thursday May 05 2016 10:00 UTC
Forecast type:
FROM: standard forecast or significant change
Winds:
from the N (350 degrees) at 6.9 mph (6 knots: 3.1 m/s)
Visibility:
Ceiling:
at least 12,000 feet AGL
at least 12,000 feet AGL
at least 12,000 feet AGL
Clouds:
Few Clouds at 8,000 feet AGL
Clear Skies
Clear Skies
Weather:
no significant weather observed at this time
FBO's on the Field
FBO Company Facility Photos Services Transportation Aviation Fuel Prices: Prices include tax
Catering Weather Repair Courtesy Rental Type 100LL JetA JetA+ MOGAS 8087
 
Harvey & Rihn Aviation

This FBO has not yet been rated
FS:Independent
Last Updated: Apr-27
Login to update fuel prices
SS:
Contact Harvey & Rihn AviationMore FBO Information
 
Tri-Star Aviation

This FBO has not yet been rated
FS:Avfuel
Last Updated: Apr-15
Login to update fuel prices
SS:
Contact Tri-Star AviationMore FBO Information
 
Add another FBO Facility Photos Catering Weather Repair Courtesy Rental Type 100LL JetA JetA+ MOGAS 8087
Services Transportation Aviation Fuel Prices: Prices include tax


model-print
model-print
model-print
model-print